Time;durP1;ratioP1;P1;durP2;ratioP2;P2;SDS_P1;SDS_P2;PMS_P1;PMS_P2;Temp;Humidity;BMP_temperature;BMP_pressure;BME280_temperature;BME280_humidity;BME280_pressure;Samples;Min_cycle;Max_cycle;Signal;HPM_P1;HPM_P2
2022/06/23 00:01:47;;;;;;;8.00;5.15;;;13.90;91.30;;;;;;5031821;28;20080;-74
2022/06/23 00:04:19;;;;;;;8.48;4.70;;;13.90;91.50;;;;;;5024842;28;20121;-74
2022/06/23 00:06:54;;;;;;;6.47;4.88;;;13.80;91.10;;;;;;5022520;28;20030;-74
2022/06/23 00:09:28;;;;;;;8.15;5.13;;;13.80;91.00;;;;;;5021265;28;20063;-74
2022/06/23 00:11:54;;;;;;;8.40;5.50;;;13.80;91.20;;;;;;5021937;28;20087;-74
2022/06/23 00:14:20;;;;;;;9.10;6.05;;;13.70;91.40;;;;;;5029317;28;20116;-74
2022/06/23 00:16:45;;;;;;;8.88;5.90;;;13.70;91.50;;;;;;5016318;28;20457;-74
2022/06/23 00:19:15;;;;;;;9.43;5.80;;;13.60;91.30;;;;;;5028462;28;20509;-75
2022/06/23 00:21:46;;;;;;;7.75;5.78;;;13.60;91.60;;;;;;5021891;28;20018;-75
2022/06/23 00:24:22;;;;;;;8.00;5.15;;;13.60;91.50;;;;;;5026505;28;20041;-75
2022/06/23 00:26:55;;;;;;;7.35;5.68;;;13.60;91.70;;;;;;5019140;28;20028;-75
2022/06/23 00:29:23;;;;;;;9.52;5.93;;;13.50;91.60;;;;;;5025745;28;20437;-75
2022/06/23 00:31:58;;;;;;;8.85;6.20;;;13.50;91.80;;;;;;5015533;28;20052;-75
2022/06/23 00:34:27;;;;;;;8.80;6.10;;;13.60;92.20;;;;;;5022571;28;20029;-75
2022/06/23 00:37:01;;;;;;;9.15;5.50;;;13.50;91.90;;;;;;5025837;28;20101;-75
2022/06/23 00:39:42;;;;;;;8.90;6.05;;;13.50;91.80;;;;;;5024605;28;20103;-75
2022/06/23 00:42:25;;;;;;;11.43;5.90;;;13.50;92.10;;;;;;5017569;28;20430;-75
2022/06/23 00:44:59;;;;;;;10.30;5.97;;;13.40;92.10;;;;;;5026999;28;20475;-75
2022/06/23 00:47:33;;;;;;;9.60;5.88;;;13.40;92.20;;;;;;5026300;28;20096;-75
2022/06/23 00:50:02;;;;;;;7.57;5.55;;;13.40;92.10;;;;;;5035538;28;20099;-75
2022/06/23 00:52:40;;;;;;;8.48;5.60;;;13.30;92.10;;;;;;5028352;28;20047;-76
2022/06/23 00:55:45;;;;;;;10.25;5.32;;;13.30;92.40;;;;;;5032918;28;20448;-75
2022/06/23 00:58:33;;;;;;;10.13;5.68;;;13.20;92.20;;;;;;5026708;28;20120;-75
2022/06/23 01:01:31;;;;;;;8.13;5.35;;;13.20;92.10;;;;;;5022323;28;20053;-75
2022/06/23 01:04:45;;;;;;;10.40;5.60;;;13.10;91.90;;;;;;5024490;28;20144;-75
2022/06/23 01:07:27;;;;;;;8.70;5.22;;;13.10;91.60;;;;;;5015593;28;20038;-75
2022/06/23 01:10:05;;;;;;;8.23;5.88;;;13.10;91.80;;;;;;5023997;28;20033;-75
2022/06/23 01:12:45;;;;;;;9.30;6.35;;;13.00;91.80;;;;;;5029512;28;20079;-75
2022/06/23 01:15:25;;;;;;;9.52;6.93;;;13.10;92.50;;;;;;5029147;28;20108;-75
2022/06/23 01:18:06;;;;;;;9.63;7.05;;;13.10;93.10;;;;;;5020620;28;20053;-75
2022/06/23 01:20:47;;;;;;;11.30;7.15;;;13.10;93.60;;;;;;5026970;28;20100;-75
2022/06/23 01:23:31;;;;;;;10.75;7.28;;;13.20;93.70;;;;;;5023925;28;20041;-75
2022/06/23 01:26:30;;;;;;;9.23;6.90;;;13.10;93.60;;;;;;5018568;28;20044;-75
2022/06/23 01:29:15;;;;;;;8.57;6.65;;;13.10;93.50;;;;;;5021713;28;20615;-75
2022/06/23 01:31:47;;;;;;;11.52;6.88;;;13.10;93.70;;;;;;5025805;28;20047;-75
2022/06/23 01:34:27;;;;;;;11.32;7.40;;;13.00;93.70;;;;;;5031313;28;20033;-75
2022/06/23 01:37:06;;;;;;;11.43;6.63;;;13.10;93.90;;;;;;5024605;28;20057;-75
2022/06/23 01:39:46;;;;;;;12.10;6.53;;;13.00;93.60;;;;;;5025250;28;20112;-75
2022/06/23 01:42:18;;;;;;;9.45;6.80;;;13.00;93.70;;;;;;5014250;28;20135;-75
2022/06/23 01:45:00;;;;;;;10.85;6.88;;;13.00;93.50;;;;;;5022861;28;20054;-76
2022/06/23 01:47:35;;;;;;;9.35;6.47;;;13.00;93.70;;;;;;5018071;28;20036;-75
2022/06/23 01:50:13;;;;;;;9.95;6.57;;;13.00;93.70;;;;;;5027554;28;20033;-75
2022/06/23 01:52:41;;;;;;;11.05;7.00;;;12.90;93.70;;;;;;5027875;28;20441;-75
2022/06/23 01:55:16;;;;;;;11.80;6.53;;;12.90;93.80;;;;;;5013535;28;20041;-75
2022/06/23 01:57:48;;;;;;;12.45;7.18;;;12.80;93.70;;;;;;5023628;28;22782;-75
2022/06/23 02:00:20;;;;;;;9.73;6.60;;;12.80;93.70;;;;;;5037360;28;20041;-73
2022/06/23 02:03:20;;;;;;;10.35;7.15;;;12.80;93.80;;;;;;5029783;28;20036;-73
2022/06/23 02:06:11;;;;;;;13.40;6.85;;;12.80;93.90;;;;;;5023364;28;20038;-73
2022/06/23 02:08:55;;;;;;;11.50;7.90;;;12.70;93.80;;;;;;5027869;28;20065;-73
2022/06/23 02:11:45;;;;;;;13.68;8.38;;;12.80;94.40;;;;;;5010097;28;20056;-73
2022/06/23 02:14:41;;;;;;;12.35;8.48;;;12.80;94.50;;;;;;5018149;28;20396;-73
2022/06/23 02:17:24;;;;;;;14.23;8.43;;;12.80;94.80;;;;;;5030562;28;20136;-74
2022/06/23 02:19:54;;;;;;;14.18;7.45;;;12.70;94.40;;;;;;5027113;28;20381;-73
2022/06/23 02:22:34;;;;;;;11.48;7.00;;;12.70;94.30;;;;;;5023229;28;20438;-73
2022/06/23 02:25:11;;;;;;;14.55;8.32;;;12.60;94.30;;;;;;5024457;28;20353;-73
2022/06/23 02:28:03;;;;;;;14.85;8.10;;;12.60;94.20;;;;;;5015782;28;20030;-74
2022/06/23 02:30:48;;;;;;;11.40;7.72;;;12.60;94.00;;;;;;5015406;28;20057;-73
2022/06/23 02:33:27;;;;;;;13.68;8.27;;;12.60;94.20;;;;;;5025801;28;20025;-73
2022/06/23 02:36:23;;;;;;;14.43;8.23;;;12.60;94.30;;;;;;5023120;28;20041;-73
2022/06/23 02:38:53;;;;;;;14.90;9.43;;;12.70;94.80;;;;;;5024555;28;20038;-74
2022/06/23 02:41:34;;;;;;;14.40;9.67;;;12.70;95.00;;;;;;5014866;28;20113;-73
2022/06/23 02:44:32;;;;;;;15.02;8.77;;;12.60;94.80;;;;;;5022853;28;20053;-73
2022/06/23 02:47:43;;;;;;;16.50;9.45;;;12.60;94.60;;;;;;5015931;28;20474;-74
2022/06/23 02:50:20;;;;;;;14.43;9.68;;;12.60;94.70;;;;;;4991194;28;20053;-74
2022/06/23 02:53:10;;;;;;;14.68;9.60;;;12.70;95.10;;;;;;5023102;28;20038;-73
2022/06/23 02:55:39;;;;;;;12.35;9.68;;;12.70;95.30;;;;;;5028533;28;20103;-73
2022/06/23 02:58:11;;;;;;;16.10;10.70;;;12.80;95.40;;;;;;5023604;28;20318;-74
2022/06/23 03:01:06;;;;;;;18.35;10.10;;;12.70;95.30;;;;;;5020492;28;20334;-73
2022/06/23 03:03:40;;;;;;;13.02;9.35;;;12.70;95.30;;;;;;5020675;28;20083;-73
2022/06/23 03:06:31;;;;;;;17.52;10.38;;;12.70;95.40;;;;;;5029290;28;20057;-73
2022/06/23 03:09:09;;;;;;;17.63;9.90;;;12.70;95.40;;;;;;5015493;28;20479;-73
2022/06/23 03:11:51;;;;;;;13.82;9.68;;;12.70;95.40;;;;;;5013684;28;20045;-73
2022/06/23 03:14:39;;;;;;;17.98;11.07;;;12.80;95.50;;;;;;5027461;28;20445;-73
2022/06/23 03:17:34;;;;;;;17.77;11.45;;;12.80;95.60;;;;;;5033547;28;20408;-73
2022/06/23 03:20:08;;;;;;;17.13;11.07;;;12.90;95.70;;;;;;5013095;28;20029;-73
2022/06/23 03:23:23;;;;;;;19.52;11.82;;;12.90;95.70;;;;;;5016817;28;20152;-75
2022/06/23 03:25:56;;;;;;;17.40;11.35;;;12.90;95.70;;;;;;4992183;28;20158;-75
2022/06/23 03:28:43;;;;;;;16.92;11.85;;;12.90;95.60;;;;;;4995276;28;20050;-75
2022/06/23 03:31:24;;;;;;;17.88;11.23;;;13.00;95.80;;;;;;5005998;28;20046;-75
2022/06/23 03:34:05;;;;;;;16.88;11.80;;;13.00;95.70;;;;;;5023370;28;20025;-75
2022/06/23 03:37:00;;;;;;;23.95;11.57;;;13.00;95.80;;;;;;5020946;28;20067;-75
2022/06/23 03:42:36;;;;;;;14.77;10.25;;;13.00;95.70;;;;;;5021569;28;20654;-75
2022/06/23 03:45:32;;;;;;;19.33;11.48;;;13.00;95.70;;;;;;5026070;28;20037;-75
2022/06/23 03:48:45;;;;;;;16.67;11.23;;;13.00;95.60;;;;;;5023566;28;20036;-75
2022/06/23 03:51:18;;;;;;;19.33;10.85;;;13.10;95.70;;;;;;5009218;28;20049;-75
2022/06/23 03:54:12;;;;;;;14.27;11.10;;;13.10;95.60;;;;;;5019965;28;20083;-75
2022/06/23 03:57:03;;;;;;;18.85;11.73;;;13.10;95.70;;;;;;5015236;28;20039;-75
2022/06/23 03:59:36;;;;;;;20.02;10.88;;;13.20;95.70;;;;;;5023421;28;20030;-75
2022/06/23 04:02:20;;;;;;;19.70;12.43;;;13.10;95.50;;;;;;5012641;28;20026;-75
2022/06/23 04:04:59;;;;;;;17.98;11.48;;;13.20;95.80;;;;;;5019077;28;20473;-75
2022/06/23 04:07:41;;;;;;;18.25;11.73;;;13.30;95.90;;;;;;5013525;28;20430;-75
2022/06/23 04:10:14;;;;;;;21.35;12.18;;;13.30;95.70;;;;;;5027740;28;20110;-73
2022/06/23 04:12:47;;;;;;;24.35;13.00;;;13.40;95.80;;;;;;5016233;28;20101;-73
2022/06/23 04:15:26;;;;;;;20.35;12.73;;;13.50;95.80;;;;;;5015123;28;20144;-73
2022/06/23 04:17:56;;;;;;;20.08;12.23;;;13.50;95.70;;;;;;5035342;28;20033;-72
2022/06/23 04:20:44;;;;;;;19.58;11.95;;;13.50;95.70;;;;;;5032705;28;20029;-72
2022/06/23 04:23:22;;;;;;;14.93;11.38;;;13.50;95.50;;;;;;5026725;28;20033;-72
2022/06/23 04:26:02;;;;;;;16.23;11.27;;;13.60;95.50;;;;;;5033061;28;20045;-72
2022/06/23 04:28:32;;;;;;;16.98;11.80;;;13.60;95.50;;;;;;5017477;28;20038;-73
2022/06/23 04:31:01;;;;;;;20.02;12.82;;;13.70;95.70;;;;;;5014947;28;20264;-73
2022/06/23 04:33:28;;;;;;;22.90;12.18;;;13.80;95.60;;;;;;5020830;28;20044;-74
2022/06/23 04:35:58;;;;;;;19.10;12.02;;;13.80;95.50;;;;;;5027577;28;20033;-74
2022/06/23 04:38:29;;;;;;;17.00;11.90;;;13.90;95.50;;;;;;5027956;28;20033;-74
2022/06/23 04:41:12;;;;;;;17.00;11.25;;;14.00;95.40;;;;;;5038049;28;20111;-72
2022/06/23 04:43:44;;;;;;;21.63;11.55;;;14.10;95.30;;;;;;5021074;28;20049;-73
2022/06/23 04:46:14;;;;;;;15.88;11.25;;;14.10;95.10;;;;;;5027918;28;20333;-74
2022/06/23 04:48:39;;;;;;;15.70;11.05;;;14.10;95.10;;;;;;5021154;28;20402;-73
2022/06/23 04:51:34;;;;;;;15.88;11.05;;;14.20;95.10;;;;;;5023283;28;20037;-74
2022/06/23 04:54:15;;;;;;;15.80;10.77;;;14.30;94.90;;;;;;5020736;28;20038;-73
2022/06/23 04:57:00;;;;;;;19.77;9.95;;;14.40;94.80;;;;;;5013055;28;20426;-73
2022/06/23 04:59:43;;;;;;;15.75;10.30;;;14.50;94.70;;;;;;5022139;28;20507;-73
2022/06/23 05:02:58;;;;;;;13.77;9.40;;;14.60;94.30;;;;;;5016086;28;20054;-73
2022/06/23 05:05:34;;;;;;;14.82;9.23;;;14.70;94.00;;;;;;5011931;28;20053;-73
2022/06/23 05:08:17;;;;;;;14.48;9.68;;;14.80;93.80;;;;;;5028015;28;20033;-73
2022/06/23 05:10:58;;;;;;;14.32;8.95;;;14.90;93.40;;;;;;5018419;28;20021;-73
2022/06/23 05:13:36;;;;;;;15.73;9.02;;;15.00;93.00;;;;;;5029671;28;20480;-73
2022/06/23 05:16:07;;;;;;;14.30;7.88;;;15.20;92.80;;;;;;5024556;28;20037;-73
2022/06/23 05:18:41;;;;;;;10.27;7.33;;;15.30;92.70;;;;;;5019638;28;20049;-73
2022/06/23 05:21:27;;;;;;;13.15;7.93;;;15.40;92.20;;;;;;5023877;28;20104;-73
2022/06/23 05:24:17;;;;;;;11.68;7.28;;;15.60;91.40;;;;;;5019783;28;20041;-73
2022/06/23 05:26:52;;;;;;;12.07;7.13;;;15.60;91.10;;;;;;5008508;28;20116;-73
2022/06/23 05:29:28;;;;;;;8.05;6.32;;;15.80;90.80;;;;;;5029813;28;20024;-74
2022/06/23 05:32:00;;;;;;;12.48;6.78;;;15.90;89.90;;;;;;5028973;28;20086;-74
2022/06/23 05:34:30;;;;;;;13.43;6.38;;;16.00;89.50;;;;;;5031194;28;20114;-74
2022/06/23 05:37:17;;;;;;;9.98;6.47;;;16.10;89.00;;;;;;5022057;28;20029;-73
2022/06/23 05:40:07;;;;;;;8.90;6.05;;;16.30;88.90;;;;;;5018840;28;20515;-74
2022/06/23 05:42:33;;;;;;;9.45;5.88;;;16.40;88.10;;;;;;5022080;28;20566;-74
2022/06/23 05:45:03;;;;;;;9.50;5.53;;;16.50;87.30;;;;;;5024974;28;20052;-74
2022/06/23 05:47:32;;;;;;;9.55;6.43;;;16.70;87.60;;;;;;5024337;28;20049;-73
2022/06/23 05:50:01;;;;;;;9.45;5.50;;;16.80;86.00;;;;;;5016481;28;20061;-73
2022/06/23 05:52:35;;;;;;;7.45;4.68;;;17.00;85.60;;;;;;5016373;28;20092;-73
2022/06/23 05:55:35;;;;;;;13.35;5.00;;;17.00;85.50;;;;;;5008419;28;20359;-73
2022/06/23 05:58:23;;;;;;;8.32;4.88;;;17.20;85.00;;;;;;5024490;28;20033;-73
2022/06/23 06:01:16;;;;;;;8.63;4.90;;;17.40;84.80;;;;;;5017175;28;20034;-73
2022/06/23 06:04:03;;;;;;;10.20;5.00;;;17.50;84.20;;;;;;5029857;28;20121;-73
2022/06/23 06:06:29;;;;;;;9.02;4.90;;;17.60;82.70;;;;;;5024218;28;20077;-73
2022/06/23 06:11:50;;;;;;;9.40;4.35;;;17.80;82.10;;;;;;5025672;28;20059;-73
2022/06/23 06:14:19;;;;;;;7.55;4.68;;;18.00;82.20;;;;;;5023074;28;20342;-73
2022/06/23 06:16:45;;;;;;;8.35;4.47;;;18.10;81.20;;;;;;5028783;28;20449;-73
2022/06/23 06:19:14;;;;;;;13.63;5.22;;;18.30;80.90;;;;;;5023966;28;20030;-73
2022/06/23 06:21:40;;;;;;;9.63;4.65;;;18.30;79.20;;;;;;5015487;28;20132;-73
2022/06/23 06:24:24;;;;;;;9.93;4.57;;;18.50;79.30;;;;;;5018486;28;20033;-73
2022/06/23 06:26:52;;;;;;;10.77;4.53;;;18.60;78.90;;;;;;5026856;28;20026;-73
2022/06/23 06:29:26;;;;;;;9.55;4.93;;;18.80;79.30;;;;;;5029235;28;20123;-73
2022/06/23 06:32:17;;;;;;;7.72;4.93;;;18.90;78.50;;;;;;5019180;28;20440;-73
2022/06/23 06:34:49;;;;;;;6.85;3.75;;;19.10;79.30;;;;;;5028568;28;20033;-73
2022/06/23 06:37:16;;;;;;;7.10;4.40;;;19.30;78.30;;;;;;5027513;28;20034;-73
2022/06/23 06:39:50;;;;;;;8.25;4.38;;;19.40;77.00;;;;;;5026880;28;20044;-73
2022/06/23 06:42:27;;;;;;;7.13;4.20;;;19.40;76.90;;;;;;5014100;28;20128;-73
2022/06/23 06:44:56;;;;;;;7.95;4.30;;;19.60;76.00;;;;;;5028252;28;20136;-73
2022/06/23 06:47:28;;;;;;;7.18;4.15;;;19.70;75.90;;;;;;5025741;28;20017;-73
2022/06/23 06:49:58;;;;;;;6.80;4.45;;;20.00;74.90;;;;;;5026884;28;20095;-73
2022/06/23 06:52:25;;;;;;;7.97;3.95;;;20.00;73.70;;;;;;5029033;28;20124;-73
2022/06/23 06:55:01;;;;;;;8.95;4.13;;;20.30;75.60;;;;;;5025067;28;20128;-73
2022/06/23 06:57:36;;;;;;;7.75;3.95;;;20.50;73.90;;;;;;5027939;28;20079;-73
2022/06/23 07:00:11;;;;;;;7.55;3.70;;;20.50;72.50;;;;;;5027307;28;20064;-73
2022/06/23 07:02:48;;;;;;;6.28;3.80;;;20.70;72.20;;;;;;5027935;28;20128;-74
2022/06/23 07:05:26;;;;;;;11.45;3.97;;;20.90;70.80;;;;;;5025102;28;20482;-73
2022/06/23 07:08:00;;;;;;;7.30;3.42;;;21.10;69.70;;;;;;5016822;28;20075;-73
2022/06/23 07:10:41;;;;;;;6.07;3.28;;;21.30;69.70;;;;;;5018911;28;20044;-74
2022/06/23 07:13:30;;;;;;;5.25;3.17;;;21.40;68.60;;;;;;5023370;28;20074;-73
2022/06/23 07:16:24;;;;;;;14.27;3.47;;;21.60;69.20;;;;;;5028274;28;20103;-74
2022/06/23 07:19:16;;;;;;;4.57;2.78;;;21.50;67.60;;;;;;5017061;28;20089;-74
2022/06/23 07:22:02;;;;;;;3.92;2.92;;;21.70;67.00;;;;;;5022050;28;20426;-73
2022/06/23 07:24:37;;;;;;;6.20;3.10;;;21.90;66.70;;;;;;5026599;28;20116;-73
2022/06/23 07:27:14;;;;;;;6.72;3.10;;;21.80;65.50;;;;;;5027498;28;20025;-73
2022/06/23 07:29:41;;;;;;;5.15;2.88;;;22.00;66.70;;;;;;5025166;28;20045;-74
2022/06/23 07:32:26;;;;;;;7.20;3.20;;;22.50;67.10;;;;;;5018668;28;20064;-74
2022/06/23 07:35:01;;;;;;;5.63;3.20;;;22.80;64.60;;;;;;5026555;28;20104;-74
2022/06/23 07:37:36;;;;;;;5.07;2.92;;;22.80;63.70;;;;;;5024748;28;20029;-74
2022/06/23 07:40:05;;;;;;;4.72;2.95;;;22.80;62.10;;;;;;5013535;28;20116;-74
2022/06/23 07:42:41;;;;;;;4.32;2.65;;;23.00;62.50;;;;;;5025926;28;20510;-74
2022/06/23 07:45:14;;;;;;;5.63;3.33;;;23.10;62.20;;;;;;5029811;28;20406;-74
2022/06/23 07:47:40;;;;;;;6.38;2.65;;;23.00;60.40;;;;;;5032227;28;20330;-74
2022/06/23 07:50:05;;;;;;;8.38;2.78;;;23.20;61.70;;;;;;5030187;28;20036;-74
2022/06/23 07:52:31;;;;;;;5.65;2.83;;;23.50;62.70;;;;;;5024751;28;20398;-74
2022/06/23 07:54:57;;;;;;;4.75;2.90;;;23.50;58.40;;;;;;5022904;28;20912;-74
2022/06/23 07:57:27;;;;;;;7.75;2.67;;;23.70;60.40;;;;;;5030870;28;20096;-74
2022/06/23 07:59:59;;;;;;;6.82;2.55;;;23.70;60.20;;;;;;5031342;28;20362;-74
2022/06/23 08:02:43;;;;;;;6.93;2.75;;;23.80;58.70;;;;;;5031683;28;20037;-75
2022/06/23 08:05:18;;;;;;;5.38;2.50;;;24.00;59.50;;;;;;5030700;28;20396;-75
2022/06/23 08:07:44;;;;;;;7.32;3.10;;;24.10;60.00;;;;;;5029181;28;20037;-75
2022/06/23 08:10:16;;;;;;;4.35;2.55;;;24.40;59.80;;;;;;5026275;28;20207;-75
2022/06/23 08:12:54;;;;;;;6.20;3.33;;;24.20;58.40;;;;;;5014651;28;20065;-73
2022/06/23 08:19:06;;;;;;;5.70;2.30;;;24.80;57.30;;;;;;5031430;28;20440;-76
2022/06/23 08:21:41;;;;;;;5.97;2.63;;;25.00;54.20;;;;;;5009817;28;20101;-73
2022/06/23 08:24:11;;;;;;;5.05;2.58;;;25.10;55.20;;;;;;5029842;28;20026;-73
2022/06/23 08:26:39;;;;;;;5.78;2.50;;;25.10;53.20;;;;;;5028112;28;20412;-73
2022/06/23 08:29:10;;;;;;;4.35;2.70;;;25.30;53.30;;;;;;5027149;28;20033;-75
2022/06/23 08:31:36;;;;;;;4.97;2.72;;;25.50;54.10;;;;;;5022954;28;20468;-75
2022/06/23 08:34:02;;;;;;;4.07;2.20;;;25.30;50.80;;;;;;5031362;28;20120;-75
2022/06/23 08:36:41;;;;;;;6.97;2.75;;;25.50;50.70;;;;;;5024524;28;20038;-75
2022/06/23 08:39:45;;;;;;;5.05;2.53;;;25.80;52.40;;;;;;5026505;28;20032;-75
2022/06/23 08:42:35;;;;;;;5.07;2.28;;;25.60;52.30;;;;;;5002712;28;20073;-74
2022/06/23 08:45:35;;;;;;;3.78;2.20;;;26.10;52.40;;;;;;5022760;28;20038;-74
2022/06/23 08:48:11;;;;;;;5.80;2.13;;;26.10;48.00;;;;;;5018312;28;20025;-74
2022/06/23 08:50:40;;;;;;;4.82;2.03;;;26.00;47.60;;;;;;5019294;28;20129;-74
2022/06/23 08:53:34;;;;;;;5.30;2.40;;;26.30;49.40;;;;;;5022671;28;20412;-74
2022/06/23 08:56:12;;;;;;;5.53;2.50;;;26.80;50.20;;;;;;5027337;28;20037;-75
2022/06/23 08:58:43;;;;;;;2.95;1.70;;;27.00;49.80;;;;;;5030313;28;20131;-75
2022/06/23 09:01:35;;;;;;;4.95;2.33;;;26.60;48.40;;;;;;5030247;28;20052;-75
2022/06/23 09:04:31;;;;;;;3.60;1.90;;;27.10;45.00;;;;;;5022899;28;20098;-75
2022/06/23 09:07:07;;;;;;;3.38;1.95;;;27.00;44.20;;;;;;5022463;28;20037;-74
2022/06/23 09:09:47;;;;;;;2.65;1.70;;;27.50;44.40;;;;;;5028480;28;20033;-74
2022/06/23 09:12:44;;;;;;;4.63;1.80;;;27.60;43.50;;;;;;5025715;28;20021;-74
2022/06/23 09:15:48;;;;;;;3.30;1.63;;;27.50;41.40;;;;;;5025548;28;20037;-74
2022/06/23 09:18:19;;;;;;;9.75;2.00;;;27.70;44.50;;;;;;5019927;28;20022;-74
2022/06/23 09:20:59;;;;;;;4.90;2.00;;;27.40;42.80;;;;;;5014065;28;20045;-74
2022/06/23 09:23:51;;;;;;;2.37;1.57;;;27.40;40.60;;;;;;5018565;28;20033;-74
2022/06/23 09:26:38;;;;;;;5.40;1.73;;;27.50;40.70;;;;;;5002483;28;20065;-74
2022/06/23 09:29:41;;;;;;;5.13;1.77;;;28.00;41.40;;;;;;5007784;28;20033;-75
2022/06/23 09:32:16;;;;;;;3.70;1.63;;;28.20;41.20;;;;;;5022267;28;20022;-74
2022/06/23 09:34:57;;;;;;;4.75;1.88;;;28.40;41.70;;;;;;5023013;28;20477;-74
2022/06/23 09:38:00;;;;;;;3.13;1.40;;;28.50;40.10;;;;;;5021347;28;20033;-74
2022/06/23 09:40:41;;;;;;;4.63;1.77;;;28.30;38.30;;;;;;5024948;28;20120;-75
2022/06/23 09:43:09;;;;;;;;;;;28.70;40.10;;;;;;5015707;28;20060;-75
2022/06/23 09:45:46;;;;;;;4.53;1.73;;;28.90;40.80;;;;;;5025482;28;19939;-75
2022/06/23 09:48:33;;;;;;;5.93;1.70;;;28.60;39.40;;;;;;5029288;28;20026;-75
2022/06/23 09:51:35;;;;;;;5.07;1.58;;;29.20;39.80;;;;;;5017862;28;20029;-75
2022/06/23 09:54:06;;;;;;;4.00;1.50;;;29.20;37.50;;;;;;5024237;28;20112;-75
2022/06/23 09:56:41;;;;;;;4.97;1.60;;;29.50;38.40;;;;;;5017240;28;20105;-75
2022/06/23 09:59:27;;;;;;;4.00;1.55;;;29.40;37.80;;;;;;5022455;28;20042;-75
2022/06/23 10:01:56;;;;;;;5.13;1.38;;;29.60;38.90;;;;;;5019381;28;20427;-75
2022/06/23 10:04:40;;;;;;;1.75;1.17;;;29.40;37.70;;;;;;5017389;28;20069;-75
2022/06/23 10:07:45;;;;;;;1.88;1.30;;;29.40;36.70;;;;;;5017553;28;20365;-75
2022/06/23 10:10:25;;;;;;;5.22;1.55;;;29.10;34.80;;;;;;5020521;28;20104;-75
2022/06/23 10:13:19;;;;;;;4.40;1.33;;;28.90;36.60;;;;;;5022177;28;20026;-75
2022/06/23 10:16:09;;;;;;;3.75;1.40;;;29.50;37.80;;;;;;5014512;28;20376;-75
2022/06/23 10:18:50;;;;;;;3.25;1.63;;;29.80;37.10;;;;;;5021294;28;20180;-75
2022/06/23 10:21:36;;;;;;;2.90;1.58;;;30.30;36.30;;;;;;5028345;28;20040;-75
2022/06/23 10:24:30;;;;;;;2.92;1.30;;;30.00;33.50;;;;;;5024175;28;20140;-75
2022/06/23 10:26:55;;;;;;;4.40;1.33;;;30.60;36.50;;;;;;5014731;28;20056;-75
2022/06/23 10:29:33;;;;;;;4.53;1.38;;;30.60;34.50;;;;;;5026399;28;20381;-75
2022/06/23 10:32:31;;;;;;;2.45;1.30;;;30.20;34.00;;;;;;5029768;28;20036;-76
2022/06/23 10:35:21;;;;;;;2.50;1.33;;;30.20;35.30;;;;;;5019774;28;20045;-75
2022/06/23 10:37:52;;;;;;;3.15;1.30;;;30.30;34.60;;;;;;5016061;28;20051;-75
2022/06/23 10:40:45;;;;;;;2.55;1.23;;;30.00;34.80;;;;;;5021154;28;20134;-76
2022/06/23 10:43:29;;;;;;;4.05;1.10;;;30.10;35.70;;;;;;5019956;28;20060;-76
2022/06/23 10:46:09;;;;;;;2.08;1.25;;;30.70;34.00;;;;;;5017982;28;20477;-75
2022/06/23 10:48:34;;;;;;;;;;;30.90;33.50;;;;;;5029608;28;20465;-75
2022/06/23 10:51:10;;;;;;;5.90;1.75;;;30.70;31.90;;;;;;5028188;28;19909;-76
2022/06/23 10:53:50;;;;;;;3.00;1.45;;;29.60;34.30;;;;;;5032873;28;20108;-76
2022/06/23 10:56:51;;;;;;;3.38;1.30;;;29.80;33.60;;;;;;5034947;28;20345;-76
2022/06/23 10:59:47;;;;;;;2.50;1.30;;;30.40;33.70;;;;;;5013499;28;20057;-76
2022/06/23 11:02:52;;;;;;;3.47;1.35;;;30.60;33.40;;;;;;5020997;28;20066;-75
2022/06/23 11:05:37;;;;;;;5.28;1.20;;;30.90;32.30;;;;;;5028228;28;20033;-75
2022/06/23 11:08:25;;;;;;;5.28;1.38;;;30.90;32.60;;;;;;5030750;28;20041;-75
2022/06/23 11:11:34;;;;;;;3.58;1.13;;;30.20;32.40;;;;;;5025603;28;20081;-75
2022/06/23 11:14:14;;;;;;;2.27;1.20;;;30.60;34.00;;;;;;5038270;28;20529;-75
2022/06/23 11:17:08;;;;;;;2.30;1.27;;;31.10;33.10;;;;;;5019709;28;20041;-75
2022/06/23 11:19:56;;;;;;;4.47;1.65;;;31.00;32.30;;;;;;5014521;28;20038;-75
2022/06/23 11:22:49;;;;;;;3.88;1.40;;;31.70;32.50;;;;;;5047774;28;20053;-75
2022/06/23 11:25:26;;;;;;;4.38;1.15;;;31.30;30.80;;;;;;5028367;28;20447;-74
2022/06/23 11:27:51;;;;;;;4.93;1.10;;;32.00;33.20;;;;;;5031596;28;20052;-75
2022/06/23 11:30:24;;;;;;;4.30;1.48;;;31.50;31.30;;;;;;5031947;28;20453;-75
2022/06/23 11:33:23;;;;;;;2.97;1.40;;;31.70;31.50;;;;;;5031871;28;20051;-76
2022/06/23 11:36:16;;;;;;;5.38;1.33;;;32.50;32.40;;;;;;5025440;28;20034;-75
2022/06/23 11:38:54;;;;;;;4.20;1.45;;;32.30;30.40;;;;;;5030719;28;20041;-75
2022/06/23 11:41:59;;;;;;;3.67;1.58;;;32.50;31.50;;;;;;5028209;28;20029;-74
2022/06/23 11:44:49;;;;;;;4.40;1.13;;;32.60;30.30;;;;;;5027145;28;20621;-76
2022/06/23 11:47:49;;;;;;;2.83;1.10;;;33.10;32.00;;;;;;5042679;28;20037;-75
2022/06/23 11:50:20;;;;;;;;;;;32.40;31.10;;;;;;5024500;28;20049;-73
2022/06/23 11:52:57;;;;;;;4.65;1.35;;;32.80;29.20;;;;;;5030373;28;19909;-73
2022/06/23 11:55:45;;;;;;;3.15;1.17;;;32.50;29.30;;;;;;5029629;28;20199;-74
2022/06/23 11:58:36;;;;;;;1.90;1.08;;;32.60;30.10;;;;;;5035573;28;20037;-74
2022/06/23 12:01:23;;;;;;;1.65;1.30;;;33.60;31.00;;;;;;5004532;28;20041;-75
2022/06/23 12:04:13;;;;;;;3.20;1.30;;;33.90;29.40;;;;;;5021018;28;20034;-75
2022/06/23 12:07:02;;;;;;;3.47;1.35;;;33.90;30.10;;;;;;5028964;28;20135;-75
2022/06/23 12:09:53;;;;;;;3.75;1.20;;;33.50;28.50;;;;;;5030081;28;20139;-76
2022/06/23 12:12:19;;;;;;;2.65;1.20;;;33.50;29.00;;;;;;5024922;28;20033;-76
2022/06/23 12:14:45;;;;;;;2.42;0.98;;;34.00;28.00;;;;;;5023838;28;20044;-75
2022/06/23 12:17:13;;;;;;;2.15;0.93;;;33.70;28.50;;;;;;5024742;28;20449;-75
2022/06/23 12:20:16;;;;;;;1.90;1.20;;;33.80;29.60;;;;;;5026702;28;20033;-75
2022/06/23 12:22:49;;;;;;;4.53;1.20;;;34.20;29.20;;;;;;5022849;28;20097;-75
2022/06/23 12:25:38;;;;;;;4.43;1.27;;;34.30;28.00;;;;;;5028404;28;20467;-75
2022/06/23 12:28:21;;;;;;;2.00;1.20;;;34.40;27.80;;;;;;5023326;28;20068;-74
2022/06/23 12:31:26;;;;;;;2.72;1.10;;;33.90;29.40;;;;;;5025361;28;20040;-75
2022/06/23 12:34:05;;;;;;;2.90;1.17;;;34.90;28.90;;;;;;5030379;28;20048;-74
2022/06/23 12:37:05;;;;;;;1.70;0.98;;;34.90;27.10;;;;;;5024086;28;20059;-75
2022/06/23 12:39:44;;;;;;;4.10;1.25;;;34.60;27.50;;;;;;5024081;28;20547;-75
2022/06/23 12:42:17;;;;;;;3.83;0.90;;;35.20;27.00;;;;;;5026998;28;20050;-75
2022/06/23 12:45:12;;;;;;;3.55;1.00;;;34.80;27.90;;;;;;5015023;28;20335;-73
2022/06/23 12:47:52;;;;;;;1.75;0.90;;;35.50;26.30;;;;;;5027934;28;20029;-73
2022/06/23 12:50:42;;;;;;;3.28;1.10;;;35.80;26.00;;;;;;5021394;28;20037;-74
2022/06/23 12:53:21;;;;;;;1.67;1.00;;;35.10;26.70;;;;;;5025175;28;20329;-73
2022/06/23 12:55:53;;;;;;;1.92;0.95;;;35.00;27.10;;;;;;5023427;28;20590;-74
2022/06/23 12:58:23;;;;;;;2.03;0.93;;;35.10;27.90;;;;;;5033679;28;20073;-74
2022/06/23 13:00:56;;;;;;;;;;;35.30;28.00;;;;;;5027184;28;20052;-74
2022/06/23 13:03:37;;;;;;;2.15;1.00;;;35.40;25.90;;;;;;5024491;28;19993;-74
2022/06/23 13:06:24;;;;;;;2.58;1.20;;;35.70;26.10;;;;;;5028467;28;20041;-74
2022/06/23 13:08:56;;;;;;;3.15;1.30;;;35.40;26.20;;;;;;5033683;28;20356;-74
2022/06/23 13:11:46;;;;;;;2.03;1.10;;;35.40;26.10;;;;;;5033211;28;20056;-74
2022/06/23 13:14:30;;;;;;;2.58;1.13;;;34.70;27.10;;;;;;5026934;28;20124;-74
2022/06/23 13:17:08;;;;;;;2.35;1.10;;;35.50;26.50;;;;;;5026121;28;20024;-74
2022/06/23 13:19:48;;;;;;;5.18;1.15;;;36.10;24.70;;;;;;5018523;28;20040;-74
2022/06/23 13:22:14;;;;;;;1.77;1.10;;;36.90;26.50;;;;;;5025435;28;20421;-74
2022/06/23 13:24:43;;;;;;;2.17;1.10;;;36.50;25.10;;;;;;5029760;28;20029;-74
2022/06/23 13:27:20;;;;;;;5.50;1.20;;;36.40;24.20;;;;;;5021137;28;20362;-75
2022/06/23 13:30:08;;;;;;;2.78;1.02;;;36.60;24.60;;;;;;5011438;28;20037;-74
2022/06/23 13:32:45;;;;;;;1.63;1.08;;;36.60;26.00;;;;;;5019329;28;20037;-74
2022/06/23 13:35:24;;;;;;;2.15;1.00;;;36.80;24.10;;;;;;5012351;28;20046;-74
2022/06/23 13:38:21;;;;;;;1.55;0.90;;;36.30;24.60;;;;;;5013810;28;20026;-74
2022/06/23 13:41:16;;;;;;;1.77;1.15;;;35.50;25.90;;;;;;5013112;28;20381;-74
2022/06/23 13:43:46;;;;;;;2.05;1.02;;;35.90;25.70;;;;;;5028808;28;20049;-74
2022/06/23 13:46:24;;;;;;;1.83;1.13;;;36.20;24.40;;;;;;5020160;28;20488;-75
2022/06/23 13:49:06;;;;;;;1.67;0.90;;;36.90;24.30;;;;;;5024280;28;20048;-74
2022/06/23 13:51:55;;;;;;;1.48;1.02;;;37.20;23.10;;;;;;5021787;28;20054;-74
2022/06/23 13:54:30;;;;;;;3.17;1.02;;;36.90;25.10;;;;;;5026649;28;20021;-74
2022/06/23 13:57:12;;;;;;;1.77;1.08;;;37.30;24.20;;;;;;5030462;28;20120;-74
2022/06/23 13:59:56;;;;;;;1.70;1.20;;;37.80;25.00;;;;;;5027908;28;20056;-75
2022/06/23 14:02:29;;;;;;;3.15;1.10;;;38.50;22.10;;;;;;5031026;28;20380;-75